Time;durP1;ratioP1;P1;durP2;ratioP2;P2;SDS_P1;SDS_P2;PMS_P1;PMS_P2;Temp;Humidity;BMP_temperature;BMP_pressure;BME280_temperature;BME280_humidity;BME280_pressure;Samples;Min_cycle;Max_cycle;Signal;HPM_P1;HPM_P2
2022/03/05 00:00:13;;;;;;;24.30;6.65;;;6.40;99.90;;;;;;5034576;28;20171;-67
2022/03/05 00:02:39;;;;;;;25.77;6.93;;;6.20;99.90;;;;;;5033225;28;20021;-67
2022/03/05 00:05:05;;;;;;;26.63;7.03;;;6.10;99.90;;;;;;5032469;28;20028;-67
2022/03/05 00:07:32;;;;;;;27.83;6.70;;;6.10;99.90;;;;;;5033087;28;20036;-66
2022/03/05 00:09:58;;;;;;;27.63;6.53;;;6.10;99.90;;;;;;5032367;28;20037;-67
2022/03/05 00:12:23;;;;;;;26.08;7.20;;;6.10;99.90;;;;;;5033106;28;20439;-67
2022/03/05 00:14:49;;;;;;;29.95;7.03;;;6.00;99.90;;;;;;5033817;28;20037;-67
2022/03/05 00:17:15;;;;;;;22.75;6.68;;;6.00;99.90;;;;;;5031755;28;20043;-67
2022/03/05 00:19:40;;;;;;;21.00;6.97;;;6.00;99.90;;;;;;5032530;28;20490;-66
2022/03/05 00:22:06;;;;;;;29.45;6.72;;;6.00;99.90;;;;;;5032704;28;20021;-66
2022/03/05 00:24:32;;;;;;;23.45;7.18;;;5.90;99.90;;;;;;5032033;28;20038;-67
2022/03/05 00:26:57;;;;;;;24.25;6.80;;;5.90;99.90;;;;;;5034585;28;20053;-67
2022/03/05 00:29:25;;;;;;;26.60;7.68;;;5.80;99.90;;;;;;5032480;28;20108;-67
2022/03/05 00:31:51;;;;;;;25.13;8.00;;;5.80;99.90;;;;;;5030793;28;20018;-67
2022/03/05 00:34:17;;;;;;;25.17;7.97;;;5.80;99.90;;;;;;5032450;28;20104;-67
2022/03/05 00:36:43;;;;;;;22.38;7.55;;;5.70;99.90;;;;;;5031092;28;20130;-67
2022/03/05 00:39:08;;;;;;;24.75;7.50;;;5.70;99.90;;;;;;5029452;28;20144;-67
2022/03/05 00:41:34;;;;;;;27.73;7.97;;;5.70;99.90;;;;;;5031970;28;20085;-67
2022/03/05 00:44:00;;;;;;;23.67;7.88;;;5.60;99.90;;;;;;5031308;28;20025;-67
2022/03/05 00:46:26;;;;;;;24.70;8.10;;;5.50;99.90;;;;;;5031918;28;20025;-67
2022/03/05 00:48:52;;;;;;;23.50;7.90;;;5.60;99.90;;;;;;5032077;28;20021;-67
2022/03/05 00:51:19;;;;;;;27.15;8.05;;;5.60;99.90;;;;;;5033290;28;20155;-67
2022/03/05 00:53:44;;;;;;;28.05;8.02;;;5.50;99.90;;;;;;5032079;28;20028;-67
2022/03/05 00:56:10;;;;;;;26.63;7.15;;;5.50;99.90;;;;;;5032955;28;20034;-67
2022/03/05 00:58:36;;;;;;;16.33;7.00;;;5.50;99.90;;;;;;5031669;28;20100;-67
2022/03/05 01:01:02;;;;;;;23.75;8.63;;;5.50;99.90;;;;;;5031874;28;20414;-67
2022/03/05 01:03:28;;;;;;;22.05;8.18;;;5.50;99.90;;;;;;5031828;28;20072;-66
2022/03/05 01:05:54;;;;;;;27.13;8.68;;;5.70;99.90;;;;;;5034067;28;20064;-67
2022/03/05 01:08:20;;;;;;;26.55;8.95;;;5.60;99.90;;;;;;5030645;28;20025;-66
2022/03/05 01:10:46;;;;;;;31.48;12.18;;;5.70;99.90;;;;;;5029577;28;20083;-67
2022/03/05 01:13:12;;;;;;;28.30;13.07;;;5.70;99.90;;;;;;5031891;28;20068;-66
2022/03/05 01:15:37;;;;;;;31.00;12.48;;;5.70;99.90;;;;;;5030224;28;20030;-66
2022/03/05 01:18:03;;;;;;;29.25;13.02;;;5.70;99.90;;;;;;5033307;28;20033;-66
2022/03/05 01:20:30;;;;;;;29.60;11.77;;;5.60;99.90;;;;;;5031379;28;20036;-66
2022/03/05 01:22:55;;;;;;;73.45;40.33;;;5.50;99.90;;;;;;5031468;28;20390;-66
2022/03/05 01:25:21;;;;;;;101.05;56.05;;;5.60;99.90;;;;;;5031335;28;20039;-66
2022/03/05 01:27:47;;;;;;;104.63;55.47;;;5.50;99.90;;;;;;5031453;28;20101;-67
2022/03/05 01:30:13;;;;;;;91.65;48.35;;;5.50;99.90;;;;;;5032995;28;20486;-67
2022/03/05 01:32:39;;;;;;;57.50;30.17;;;5.50;99.90;;;;;;5031208;28;20029;-67
2022/03/05 01:35:05;;;;;;;59.00;29.38;;;5.50;99.90;;;;;;5029658;28;20049;-66
2022/03/05 01:37:31;;;;;;;49.80;27.63;;;5.50;99.90;;;;;;5030518;28;20055;-66
2022/03/05 01:39:57;;;;;;;43.63;18.63;;;5.40;99.90;;;;;;5031010;28;20029;-67
2022/03/05 01:42:24;;;;;;;60.17;29.40;;;5.40;99.90;;;;;;5031806;28;20028;-66
2022/03/05 01:44:51;;;;;;;67.10;34.42;;;5.20;99.90;;;;;;5032430;28;20053;-66
2022/03/05 01:47:17;;;;;;;41.25;19.83;;;5.20;99.90;;;;;;5031014;28;20108;-66
2022/03/05 01:49:43;;;;;;;37.10;16.48;;;5.20;99.90;;;;;;5029254;28;20558;-66
2022/03/05 01:52:10;;;;;;;36.42;17.10;;;5.10;99.90;;;;;;5030575;28;20120;-66
2022/03/05 01:54:37;;;;;;;48.10;18.83;;;5.10;99.90;;;;;;5030435;28;20478;-66
2022/03/05 01:57:03;;;;;;;46.72;23.17;;;5.10;99.90;;;;;;5032737;28;20033;-66
2022/03/05 01:59:29;;;;;;;81.68;38.85;;;5.10;99.90;;;;;;5030648;28;20494;-66
2022/03/05 02:01:55;;;;;;;34.08;12.90;;;5.10;99.90;;;;;;5030659;28;20044;-66
2022/03/05 02:04:20;;;;;;;35.90;14.32;;;5.00;99.90;;;;;;5030527;28;20076;-66
2022/03/05 02:06:47;;;;;;;31.23;12.05;;;5.00;99.90;;;;;;5030382;28;20071;-66
2022/03/05 02:09:12;;;;;;;30.42;10.93;;;4.90;99.90;;;;;;5032257;28;20033;-66
2022/03/05 02:11:39;;;;;;;30.33;11.00;;;4.90;99.90;;;;;;5029065;28;20096;-66
2022/03/05 02:14:05;;;;;;;29.30;10.45;;;4.90;99.90;;;;;;5028825;28;20366;-66
2022/03/05 02:16:31;;;;;;;25.67;9.80;;;4.90;99.90;;;;;;5030565;28;20037;-66
2022/03/05 02:18:57;;;;;;;37.00;10.65;;;4.90;99.90;;;;;;5029575;28;20120;-66
2022/03/05 02:21:27;;;;;;;29.48;8.80;;;4.80;99.90;;;;;;5030548;28;20025;-66
2022/03/05 02:23:54;;;;;;;22.80;7.85;;;4.80;99.90;;;;;;5031850;28;20067;-67
2022/03/05 02:26:22;;;;;;;25.02;8.25;;;4.80;99.90;;;;;;5030615;28;20037;-66
2022/03/05 02:28:48;;;;;;;26.48;7.95;;;4.70;99.90;;;;;;5028889;28;20025;-67
2022/03/05 02:31:14;;;;;;;22.02;7.53;;;4.70;99.90;;;;;;5030302;28;20084;-67
2022/03/05 02:33:41;;;;;;;38.22;19.90;;;4.70;99.90;;;;;;5029719;28;20048;-66
2022/03/05 02:36:07;;;;;;;26.15;14.35;;;4.60;99.90;;;;;;5032145;28;20463;-66
2022/03/05 02:38:32;;;;;;;28.02;13.70;;;4.50;99.90;;;;;;5029772;28;20132;-66
2022/03/05 02:40:58;;;;;;;30.73;12.65;;;4.50;99.90;;;;;;5029802;28;20112;-66
2022/03/05 02:43:25;;;;;;;27.48;10.63;;;4.50;99.90;;;;;;5026436;28;20033;-66
2022/03/05 02:45:51;;;;;;;30.85;14.05;;;4.40;99.90;;;;;;5029877;28;20033;-66
2022/03/05 02:48:18;;;;;;;38.95;16.83;;;4.50;99.90;;;;;;5030908;28;20035;-66
2022/03/05 02:50:45;;;;;;;54.40;25.77;;;4.60;99.90;;;;;;5030106;28;20021;-66
2022/03/05 02:53:11;;;;;;;49.28;27.25;;;4.70;99.90;;;;;;5028473;28;20032;-67
2022/03/05 02:55:39;;;;;;;44.78;20.55;;;4.60;99.90;;;;;;5030078;28;20029;-66
2022/03/05 02:58:05;;;;;;;27.05;13.45;;;4.50;99.90;;;;;;5029807;28;20128;-66
2022/03/05 03:00:31;;;;;;;52.40;27.40;;;4.40;99.90;;;;;;5029901;28;20041;-66
2022/03/05 03:02:57;;;;;;;54.72;26.63;;;4.40;99.90;;;;;;5029613;28;20029;-66
2022/03/05 03:05:23;;;;;;;48.20;23.55;;;4.50;99.90;;;;;;5029630;28;20116;-66
2022/03/05 03:07:49;;;;;;;50.47;27.00;;;4.50;99.90;;;;;;5028163;28;20025;-66
2022/03/05 03:10:16;;;;;;;56.08;30.58;;;4.40;99.90;;;;;;5029732;28;20029;-66
2022/03/05 03:12:42;;;;;;;50.38;27.33;;;4.50;99.90;;;;;;5013837;28;20105;-66
2022/03/05 03:15:12;;;;;;;76.80;48.03;;;4.50;99.90;;;;;;5031873;28;20497;-66
2022/03/05 03:17:46;;;;;;;64.20;43.08;;;4.50;99.90;;;;;;5029047;28;20401;-66
2022/03/05 03:20:15;;;;;;;52.85;33.55;;;4.50;99.90;;;;;;5029436;28;20026;-67
2022/03/05 03:22:41;;;;;;;46.88;26.00;;;4.40;99.90;;;;;;5029980;28;20029;-66
2022/03/05 03:25:07;;;;;;;61.10;35.95;;;4.30;99.90;;;;;;5029660;28;20031;-66
2022/03/05 03:27:33;;;;;;;63.63;39.92;;;4.40;99.90;;;;;;5029645;28;20048;-67
2022/03/05 03:29:59;;;;;;;55.65;30.88;;;4.30;99.90;;;;;;5031317;28;20029;-66
2022/03/05 03:32:25;;;;;;;51.95;26.45;;;4.30;99.90;;;;;;5031492;28;20014;-67
2022/03/05 03:34:51;;;;;;;28.92;12.07;;;4.30;99.90;;;;;;5032988;28;20441;-66
2022/03/05 03:37:17;;;;;;;21.10;9.30;;;4.20;99.90;;;;;;5033316;28;20137;-66
2022/03/05 03:39:43;;;;;;;33.20;15.60;;;4.20;99.90;;;;;;5017756;28;20543;-67
2022/03/05 03:42:08;;;;;;;33.20;17.13;;;4.20;99.90;;;;;;5034855;28;20031;-66
2022/03/05 03:44:35;;;;;;;33.33;14.43;;;4.20;99.90;;;;;;5033299;28;20048;-66
2022/03/05 03:47:00;;;;;;;23.77;11.73;;;4.30;99.90;;;;;;5031079;28;20470;-66
2022/03/05 03:49:26;;;;;;;29.92;13.05;;;4.30;99.90;;;;;;5032908;28;20044;-66
2022/03/05 03:51:52;;;;;;;24.83;11.48;;;4.10;99.90;;;;;;5033446;28;20101;-66
2022/03/05 03:54:18;;;;;;;21.27;10.80;;;4.10;99.90;;;;;;5013758;28;20117;-67
2022/03/05 03:56:44;;;;;;;40.97;18.38;;;4.10;99.90;;;;;;5030755;28;20513;-66
2022/03/05 03:59:10;;;;;;;32.72;16.55;;;4.10;99.90;;;;;;5032583;28;20116;-66
2022/03/05 04:01:36;;;;;;;24.58;12.70;;;4.00;99.90;;;;;;5032628;28;20398;-67
2022/03/05 04:04:01;;;;;;;26.05;12.75;;;3.90;99.90;;;;;;5032375;28;20037;-66
2022/03/05 04:08:41;;;;;;;25.40;13.18;;;3.90;99.90;;;;;;5033592;28;20025;-66
2022/03/05 04:09:16;;;;;;;27.10;12.27;;;3.90;99.90;;;;;;5030451;28;20386;-66
2022/03/05 04:11:41;;;;;;;31.45;14.55;;;4.00;99.90;;;;;;5031492;28;20030;-66
2022/03/05 04:14:07;;;;;;;30.35;14.10;;;4.10;99.90;;;;;;5032918;28;20079;-66
2022/03/05 04:16:33;;;;;;;28.92;12.68;;;4.00;99.90;;;;;;5032437;28;20033;-67
2022/03/05 04:18:59;;;;;;;21.83;10.50;;;3.90;99.90;;;;;;5032538;28;20041;-66
2022/03/05 04:21:25;;;;;;;22.60;9.60;;;3.90;99.90;;;;;;5033314;28;20103;-66
2022/03/05 04:23:50;;;;;;;26.40;13.02;;;3.80;99.90;;;;;;5033638;28;20018;-66
2022/03/05 04:26:16;;;;;;;30.92;12.48;;;3.90;99.90;;;;;;5031043;28;20368;-66
2022/03/05 04:28:42;;;;;;;24.08;13.52;;;4.00;99.90;;;;;;5032446;28;20051;-66
2022/03/05 04:31:08;;;;;;;24.10;13.63;;;3.90;99.90;;;;;;5032514;28;20022;-67
2022/03/05 04:33:33;;;;;;;22.83;12.57;;;3.90;99.90;;;;;;5031840;28;20485;-66
2022/03/05 04:35:59;;;;;;;23.38;10.65;;;3.80;99.90;;;;;;5033861;28;20089;-66
2022/03/05 04:38:25;;;;;;;22.85;10.98;;;3.70;99.90;;;;;;5032590;28;20047;-66
2022/03/05 04:40:51;;;;;;;25.92;12.82;;;3.70;99.90;;;;;;5032005;28;20092;-67
2022/03/05 04:43:16;;;;;;;27.10;12.88;;;3.60;99.90;;;;;;5030955;28;20036;-66
2022/03/05 04:45:42;;;;;;;35.08;15.13;;;3.60;99.90;;;;;;5016345;28;20025;-66
2022/03/05 04:48:08;;;;;;;48.47;24.35;;;3.60;99.90;;;;;;5033614;28;20112;-66
2022/03/05 04:50:34;;;;;;;42.65;21.08;;;3.60;99.90;;;;;;5030684;28;20025;-66
2022/03/05 04:53:00;;;;;;;34.90;17.33;;;3.50;99.90;;;;;;5032001;28;20056;-66
2022/03/05 04:55:26;;;;;;;25.77;12.63;;;3.40;99.90;;;;;;5029048;28;20021;-66
2022/03/05 04:57:51;;;;;;;21.60;10.82;;;3.40;99.90;;;;;;5032140;28;20045;-66
2022/03/05 05:00:17;;;;;;;24.00;10.52;;;3.50;99.90;;;;;;5033209;28;20104;-66
2022/03/05 05:02:43;;;;;;;20.73;8.27;;;3.40;99.90;;;;;;5031810;28;20037;-66
2022/03/05 05:05:09;;;;;;;23.10;9.13;;;3.30;99.90;;;;;;5030154;28;20029;-66
2022/03/05 05:07:35;;;;;;;23.75;9.13;;;3.20;99.90;;;;;;5031694;28;20425;-66
2022/03/05 05:10:00;;;;;;;18.35;7.55;;;3.20;99.90;;;;;;5031713;28;20025;-66
2022/03/05 05:12:26;;;;;;;22.27;8.07;;;3.10;99.90;;;;;;5032437;28;20022;-66
2022/03/05 05:14:52;;;;;;;19.77;8.00;;;3.00;99.90;;;;;;5032345;28;20520;-66
2022/03/05 05:17:17;;;;;;;20.02;8.20;;;3.10;99.90;;;;;;5031313;28;20041;-66
2022/03/05 05:19:43;;;;;;;19.05;8.60;;;3.00;99.90;;;;;;5031783;28;20033;-66
2022/03/05 05:22:09;;;;;;;14.38;7.85;;;3.10;99.90;;;;;;5031342;28;20040;-66
2022/03/05 05:24:36;;;;;;;19.73;9.10;;;3.00;99.90;;;;;;5031569;28;20409;-66
2022/03/05 05:27:03;;;;;;;21.42;9.07;;;3.00;99.90;;;;;;5033146;28;20022;-66
2022/03/05 05:29:29;;;;;;;31.85;14.88;;;2.90;99.90;;;;;;5029758;28;20065;-66
2022/03/05 05:31:55;;;;;;;46.30;27.02;;;2.80;99.90;;;;;;5031150;28;20453;-66
2022/03/05 05:34:22;;;;;;;38.20;21.90;;;2.60;99.90;;;;;;5030585;28;20520;-65
2022/03/05 05:36:48;;;;;;;36.05;19.90;;;2.50;99.90;;;;;;5031299;28;20049;-67
2022/03/05 05:39:15;;;;;;;31.25;18.60;;;2.50;99.90;;;;;;5032820;28;20037;-66
2022/03/05 05:41:41;;;;;;;28.98;16.80;;;2.50;99.90;;;;;;5031374;28;20047;-66
2022/03/05 05:44:09;;;;;;;29.50;16.75;;;2.40;99.90;;;;;;5028983;28;20712;-66
2022/03/05 05:46:36;;;;;;;27.40;16.05;;;2.30;99.90;;;;;;5030548;28;20056;-66
2022/03/05 05:49:02;;;;;;;26.98;15.18;;;2.30;99.90;;;;;;5030887;28;20108;-66
2022/03/05 05:51:29;;;;;;;28.08;17.17;;;2.20;99.90;;;;;;5031557;28;20044;-66
2022/03/05 05:53:56;;;;;;;35.78;19.25;;;2.30;99.90;;;;;;5030249;28;20026;-66
2022/03/05 05:56:23;;;;;;;27.05;18.23;;;2.30;99.90;;;;;;5030865;28;20109;-66
2022/03/05 05:58:49;;;;;;;19.90;12.10;;;2.30;99.90;;;;;;5030282;28;20120;-66
2022/03/05 06:01:16;;;;;;;29.60;16.13;;;2.20;99.90;;;;;;5030615;28;20423;-66
2022/03/05 06:03:44;;;;;;;25.35;13.15;;;2.30;99.90;;;;;;5030860;28;20477;-66
2022/03/05 06:06:13;;;;;;;19.35;10.20;;;2.20;99.90;;;;;;5032486;28;20029;-66
2022/03/05 06:08:39;;;;;;;18.30;9.90;;;2.20;99.90;;;;;;5029317;28;20088;-66
2022/03/05 06:11:05;;;;;;;15.70;8.18;;;2.20;99.90;;;;;;5030325;28;20021;-66
2022/03/05 06:13:31;;;;;;;16.90;9.40;;;2.10;99.90;;;;;;5030173;28;20060;-66
2022/03/05 06:15:57;;;;;;;17.60;7.63;;;2.10;99.90;;;;;;5030741;28;20501;-66
2022/03/05 06:18:23;;;;;;;13.98;6.32;;;2.00;99.90;;;;;;5031647;28;20052;-66
2022/03/05 06:20:49;;;;;;;13.35;6.25;;;2.10;99.90;;;;;;5031233;28;20033;-66
2022/03/05 06:23:14;;;;;;;18.77;8.05;;;2.00;99.90;;;;;;5028613;28;20013;-66
2022/03/05 06:25:40;;;;;;;19.73;8.07;;;2.10;99.90;;;;;;5030364;28;20075;-66
2022/03/05 06:28:06;;;;;;;19.98;9.73;;;2.00;99.90;;;;;;5030323;28;20041;-66
2022/03/05 06:30:32;;;;;;;15.63;9.27;;;2.10;99.90;;;;;;5030094;28;20458;-66
2022/03/05 06:32:57;;;;;;;17.40;10.07;;;2.00;99.90;;;;;;5032000;28;20033;-66
2022/03/05 06:35:23;;;;;;;12.50;6.43;;;1.80;99.90;;;;;;5029794;28;20099;-66
2022/03/05 06:37:49;;;;;;;18.63;7.47;;;1.80;99.90;;;;;;5029992;28;20037;-65
2022/03/05 06:40:15;;;;;;;16.17;8.70;;;1.80;99.90;;;;;;5029828;28;20026;-66
2022/03/05 06:42:41;;;;;;;15.20;7.72;;;1.60;99.90;;;;;;5029953;28;20025;-65
2022/03/05 06:45:08;;;;;;;18.85;7.03;;;1.70;99.90;;;;;;5031299;28;20372;-67
2022/03/05 06:47:36;;;;;;;14.50;7.05;;;1.60;99.90;;;;;;5028747;28;20487;-67
2022/03/05 06:50:03;;;;;;;16.02;6.95;;;1.60;99.90;;;;;;5029333;28;20060;-67
2022/03/05 06:52:28;;;;;;;12.02;6.80;;;1.70;99.90;;;;;;5029085;28;20149;-66
2022/03/05 06:54:54;;;;;;;12.63;5.90;;;1.70;99.90;;;;;;5029525;28;20108;-67
2022/03/05 06:57:20;;;;;;;16.50;6.30;;;1.80;99.90;;;;;;5030871;28;20025;-67
2022/03/05 06:59:46;;;;;;;16.02;5.88;;;1.90;99.90;;;;;;5029748;28;20033;-66
2022/03/05 07:02:11;;;;;;;14.52;6.93;;;1.90;99.90;;;;;;5027773;28;20398;-67
2022/03/05 07:04:37;;;;;;;71.43;58.92;;;1.90;99.90;;;;;;5029731;28;20508;-66
2022/03/05 07:07:03;;;;;;;30.77;25.42;;;1.90;99.90;;;;;;5036183;28;20320;-66
2022/03/05 07:09:29;;;;;;;17.77;10.55;;;2.00;99.90;;;;;;5035535;28;20036;-67
2022/03/05 07:11:55;;;;;;;13.68;7.60;;;2.00;99.90;;;;;;5038013;28;20435;-67
2022/03/05 07:14:21;;;;;;;16.25;8.30;;;1.90;99.90;;;;;;5033682;28;20044;-67
2022/03/05 07:16:46;;;;;;;17.50;7.85;;;1.90;99.90;;;;;;5036658;28;20375;-67
2022/03/05 07:19:12;;;;;;;13.05;7.47;;;2.00;99.90;;;;;;5036271;28;20036;-66
2022/03/05 07:21:38;;;;;;;10.70;6.78;;;2.10;99.90;;;;;;5036509;28;20556;-67
2022/03/05 07:24:04;;;;;;;15.50;8.85;;;2.10;99.90;;;;;;5038233;28;20422;-66
2022/03/05 07:26:30;;;;;;;15.73;7.65;;;2.10;99.90;;;;;;5034784;28;20155;-66
2022/03/05 07:28:55;;;;;;;14.20;7.15;;;2.20;99.90;;;;;;5036295;28;20112;-67
2022/03/05 07:31:21;;;;;;;15.07;7.65;;;2.30;99.90;;;;;;5036240;28;20029;-66
2022/03/05 07:33:47;;;;;;;19.60;8.40;;;2.40;99.90;;;;;;5036173;28;20132;-67
2022/03/05 07:36:13;;;;;;;27.83;9.68;;;2.50;99.90;;;;;;5037719;28;20064;-66
2022/03/05 07:38:43;;;;;;;30.15;10.57;;;2.70;99.90;;;;;;5035598;28;20128;-67
2022/03/05 07:41:08;;;;;;;34.95;11.15;;;3.00;99.90;;;;;;5034546;28;20029;-66
2022/03/05 07:43:34;;;;;;;33.75;10.88;;;3.10;99.90;;;;;;5034090;28;20091;-66
2022/03/05 07:46:00;;;;;;;24.60;10.52;;;3.30;99.90;;;;;;5035833;28;20112;-66
2022/03/05 07:48:26;;;;;;;25.80;9.48;;;3.60;99.90;;;;;;5036163;28;20060;-66
2022/03/05 07:50:52;;;;;;;19.90;9.25;;;3.70;99.90;;;;;;5035543;28;20076;-66
2022/03/05 07:53:19;;;;;;;14.52;7.50;;;3.90;99.90;;;;;;5036239;28;20026;-67
2022/03/05 07:55:45;;;;;;;12.57;6.68;;;6.20;99.90;;;;;;5035090;28;20029;-67
2022/03/05 07:58:11;;;;;;;16.73;7.22;;;5.80;99.90;;;;;;5034494;28;20025;-67
2022/03/05 08:00:36;;;;;;;18.10;7.00;;;5.10;99.90;;;;;;5035146;28;20091;-67
2022/03/05 08:03:02;;;;;;;17.67;7.10;;;5.50;99.90;;;;;;5037226;28;20068;-67
2022/03/05 08:05:28;;;;;;;12.93;6.35;;;5.40;99.90;;;;;;5033895;28;20061;-63
2022/03/05 08:07:54;;;;;;;17.13;6.50;;;8.10;99.90;;;;;;5035533;28;20052;-66
2022/03/05 08:10:21;;;;;;;16.85;6.43;;;9.70;99.90;;;;;;5035675;28;20035;-66
2022/03/05 08:12:47;;;;;;;15.68;6.93;;;8.70;99.90;;;;;;5035167;28;20033;-66
2022/03/05 08:15:13;;;;;;;16.38;7.50;;;9.90;99.90;;;;;;5037213;28;20037;-66
2022/03/05 08:17:50;;;;;;;13.35;6.10;;;11.80;99.90;;;;;;5030024;28;20049;-65
2022/03/05 08:20:17;;;;;;;19.23;11.23;;;12.00;99.90;;;;;;5031966;28;20427;-67
2022/03/05 08:22:43;;;;;;;20.60;12.73;;;13.20;99.90;;;;;;5031694;28;20083;-66
2022/03/05 08:25:09;;;;;;;18.88;8.50;;;14.20;99.90;;;;;;5031719;28;20041;-67
2022/03/05 08:27:35;;;;;;;12.20;7.55;;;14.10;99.90;;;;;;5032184;28;20048;-67
2022/03/05 08:30:02;;;;;;;17.45;13.23;;;14.00;99.90;;;;;;5033735;28;20032;-66
2022/03/05 08:32:28;;;;;;;23.92;11.95;;;14.20;99.90;;;;;;5031638;28;20501;-66
2022/03/05 08:34:53;;;;;;;19.60;10.13;;;15.90;99.90;;;;;;5031904;28;20051;-66
2022/03/05 08:37:19;;;;;;;16.42;13.02;;;15.00;99.90;;;;;;5031772;28;20060;-66
2022/03/05 08:39:45;;;;;;;13.77;8.95;;;14.90;99.90;;;;;;5032824;28;20483;-66
2022/03/05 08:42:11;;;;;;;12.70;6.72;;;14.40;99.90;;;;;;5033868;28;20030;-66
2022/03/05 08:44:36;;;;;;;10.48;4.43;;;14.20;99.90;;;;;;5030003;28;20109;-66
2022/03/05 08:47:03;;;;;;;8.10;4.18;;;15.30;99.90;;;;;;5031382;28;20135;-66
2022/03/05 08:49:29;;;;;;;13.80;5.45;;;15.10;99.90;;;;;;5032136;28;20021;-67
2022/03/05 08:51:54;;;;;;;13.10;4.70;;;14.60;99.90;;;;;;5031805;28;20379;-67
2022/03/05 08:54:20;;;;;;;9.23;4.35;;;14.90;99.90;;;;;;5032407;28;20083;-67
2022/03/05 08:56:47;;;;;;;12.23;4.43;;;14.50;99.90;;;;;;5032086;28;20108;-70
2022/03/05 08:59:13;;;;;;;10.15;3.90;;;15.00;99.90;;;;;;5029902;28;20044;-66
2022/03/05 09:01:40;;;;;;;11.05;4.47;;;14.50;99.90;;;;;;5031160;28;20022;-67
2022/03/05 09:04:06;;;;;;;13.05;4.55;;;15.20;99.90;;;;;;5031830;28;20026;-67
2022/03/05 09:06:32;;;;;;;10.30;3.72;;;14.80;99.90;;;;;;5031553;28;20128;-67
2022/03/05 09:08:59;;;;;;;7.65;2.80;;;15.70;99.90;;;;;;5033198;28;20101;-67
2022/03/05 09:11:26;;;;;;;8.40;3.00;;;14.40;99.90;;;;;;5031315;28;20052;-67
2022/03/05 09:13:52;;;;;;;17.17;4.93;;;16.10;99.90;;;;;;5031436;28;20041;-66
2022/03/05 09:16:18;;;;;;;9.95;4.28;;;17.20;99.90;;;;;;5031836;28;20112;-67
2022/03/05 09:18:44;;;;;;;12.77;3.90;;;16.70;98.50;;;;;;5016096;28;20128;-67
2022/03/05 09:21:10;;;;;;;8.60;3.53;;;14.50;99.90;;;;;;5033138;28;20044;-66
2022/03/05 09:23:36;;;;;;;14.18;3.83;;;15.70;99.90;;;;;;5030036;28;20475;-68
2022/03/05 09:26:02;;;;;;;8.43;3.13;;;15.10;99.90;;;;;;5030935;28;20025;-67
2022/03/05 09:28:28;;;;;;;9.45;3.00;;;16.50;99.90;;;;;;5030493;28;20075;-67
2022/03/05 09:30:54;;;;;;;12.07;3.22;;;15.50;99.90;;;;;;5031322;28;20513;-67
2022/03/05 09:33:22;;;;;;;13.00;3.65;;;15.90;99.90;;;;;;5032206;28;20044;-67
2022/03/05 09:35:49;;;;;;;9.05;3.05;;;17.30;99.20;;;;;;5031163;28;20037;-68
2022/03/05 09:38:15;;;;;;;7.18;2.65;;;16.20;98.10;;;;;;5029728;28;20041;-67
2022/03/05 09:40:41;;;;;;;10.23;2.90;;;15.70;99.30;;;;;;5031133;28;20033;-67
2022/03/05 09:43:07;;;;;;;13.77;3.40;;;17.60;98.20;;;;;;5031070;28;20039;-67
2022/03/05 09:45:34;;;;;;;8.73;2.92;;;17.90;97.00;;;;;;5030949;28;20033;-66
2022/03/05 09:48:00;;;;;;;11.50;2.65;;;18.10;97.80;;;;;;5032879;28;20033;-67
2022/03/05 09:50:32;;;;;;;6.82;2.85;;;17.10;97.40;;;;;;5030654;28;20021;-67
2022/03/05 09:52:58;;;;;;;12.05;3.05;;;16.60;98.40;;;;;;5030824;28;20083;-67
2022/03/05 09:55:25;;;;;;;7.75;2.63;;;18.00;97.20;;;;;;5030777;28;20079;-66
2022/03/05 09:57:51;;;;;;;7.90;2.70;;;18.80;94.40;;;;;;5030899;28;20445;-67
2022/03/05 10:00:17;;;;;;;7.75;2.28;;;18.60;95.30;;;;;;5032649;28;20100;-67
2022/03/05 10:02:47;;;;;;;7.45;2.42;;;22.40;91.10;;;;;;5029385;28;20025;-66
2022/03/05 10:05:15;;;;;;;8.52;2.20;;;17.10;94.10;;;;;;5027569;28;20014;-67
2022/03/05 10:08:15;;;;;;;6.43;2.10;;;18.60;92.90;;;;;;5029435;28;20021;-67
2022/03/05 10:10:57;;;;;;;6.07;2.20;;;18.20;93.50;;;;;;5030404;28;20548;-66
2022/03/05 10:13:28;;;;;;;6.70;1.92;;;21.30;91.00;;;;;;5030745;28;20105;-67
2022/03/05 10:16:01;;;;;;;5.72;2.00;;;18.80;92.70;;;;;;5028995;28;20411;-67
2022/03/05 10:18:32;;;;;;;5.50;2.00;;;18.30;92.30;;;;;;5030647;28;20069;-66
2022/03/05 10:21:00;;;;;;;5.85;2.10;;;21.50;91.20;;;;;;5030342;28;20029;-67
2022/03/05 10:23:30;;;;;;;11.00;2.40;;;19.40;92.40;;;;;;5029916;28;20524;-67
2022/03/05 10:25:56;;;;;;;5.85;2.20;;;22.50;87.80;;;;;;5030040;28;20089;-67
2022/03/05 10:28:24;;;;;;;6.63;3.17;;;18.60;90.70;;;;;;5030372;28;20479;-67
2022/03/05 10:30:52;;;;;;;7.15;2.17;;;18.80;92.20;;;;;;5030479;28;20077;-67
2022/03/05 10:33:30;;;;;;;5.22;2.03;;;17.50;92.60;;;;;;5029687;28;20060;-68
2022/03/05 10:35:57;;;;;;;8.00;2.25;;;17.90;92.60;;;;;;5029538;28;20049;-67
2022/03/05 10:38:25;;;;;;;5.03;2.20;;;19.10;92.70;;;;;;5030364;28;20112;-66
2022/03/05 10:40:57;;;;;;;6.70;2.30;;;18.80;92.20;;;;;;5028078;28;20025;-67
2022/03/05 10:43:23;;;;;;;5.72;2.13;;;19.30;91.80;;;;;;5030064;28;20029;-66
2022/03/05 10:45:58;;;;;;;7.93;2.35;;;17.30;90.90;;;;;;5029899;28;20026;-68
2022/03/05 10:48:32;;;;;;;7.55;2.28;;;16.80;92.00;;;;;;5031227;28;20132;-69
2022/03/05 10:51:10;;;;;;;4.95;2.13;;;17.40;91.20;;;;;;5030035;28;20029;-69
2022/03/05 10:53:48;;;;;;;8.68;4.38;;;16.90;92.10;;;;;;5029933;28;20033;-69
2022/03/05 10:56:32;;;;;;;5.68;2.85;;;17.30;91.90;;;;;;5028535;28;20057;-68
2022/03/05 10:59:08;;;;;;;5.45;1.70;;;16.80;90.00;;;;;;5029586;28;20521;-68
2022/03/05 11:01:43;;;;;;;4.95;1.80;;;16.20;90.20;;;;;;5029611;28;20075;-68
2022/03/05 11:04:11;;;;;;;5.88;1.65;;;18.10;89.40;;;;;;5029974;28;20038;-68
2022/03/05 11:06:42;;;;;;;6.40;2.00;;;17.10;91.60;;;;;;5029877;28;20046;-68
2022/03/05 11:09:10;;;;;;;5.18;1.67;;;18.40;90.40;;;;;;5031488;28;20025;-68
2022/03/05 11:11:41;;;;;;;4.72;1.67;;;18.90;90.50;;;;;;5029981;28;20120;-68
2022/03/05 11:14:12;;;;;;;7.47;1.75;;;18.20;91.20;;;;;;5029643;28;20450;-68
2022/03/05 11:16:39;;;;;;;5.57;1.60;;;15.50;91.70;;;;;;5029389;28;20164;-67
2022/03/05 11:19:05;;;;;;;4.20;1.55;;;14.60;92.50;;;;;;5028200;28;20056;-67
2022/03/05 11:21:30;;;;;;;5.57;1.60;;;14.90;92.10;;;;;;5029250;28;20443;-67
2022/03/05 11:23:57;;;;;;;6.57;3.92;;;14.30;92.30;;;;;;5030552;28;20026;-66
2022/03/05 11:26:24;;;;;;;5.13;1.88;;;14.60;92.80;;;;;;5029443;28;20060;-68
2022/03/05 11:28:52;;;;;;;11.55;6.43;;;15.00;93.20;;;;;;5029571;28;20056;-67
2022/03/05 11:31:20;;;;;;;7.55;3.60;;;13.40;92.60;;;;;;5028837;28;20045;-68
2022/03/05 11:33:47;;;;;;;5.65;1.80;;;14.10;93.10;;;;;;5012071;28;20026;-68
2022/03/05 11:36:43;;;;;;;5.22;1.88;;;14.50;94.50;;;;;;5026905;28;20052;-67
2022/03/05 11:39:10;;;;;;;5.85;1.80;;;14.70;92.00;;;;;;5017437;28;20494;-68
2022/03/05 11:42:02;;;;;;;5.47;2.25;;;14.90;93.60;;;;;;5028956;28;20044;-68
2022/03/05 11:44:30;;;;;;;5.78;2.13;;;14.80;92.90;;;;;;5029675;28;20029;-67
2022/03/05 11:47:24;;;;;;;6.03;1.80;;;14.80;93.10;;;;;;5028874;28;20025;-68
2022/03/05 11:49:58;;;;;;;5.57;1.98;;;16.30;92.50;;;;;;5029131;28;20025;-67
2022/03/05 11:52:54;;;;;;;4.70;1.60;;;15.60;91.40;;;;;;5031184;28;20033;-67
2022/03/05 11:55:24;;;;;;;2.78;1.45;;;13.80;90.90;;;;;;5032447;28;20490;-68
2022/03/05 11:57:52;;;;;;;4.00;1.48;;;13.10;91.70;;;;;;5032108;28;20017;-68
2022/03/05 12:00:19;;;;;;;3.20;1.50;;;13.70;91.40;;;;;;5034266;28;20111;-67
2022/03/05 12:02:54;;;;;;;4.32;1.85;;;14.80;91.50;;;;;;5032828;28;20065;-67
2022/03/05 12:05:38;;;;;;;5.15;2.00;;;15.40;90.60;;;;;;5032793;28;20040;-68
2022/03/05 12:08:04;;;;;;;;;;;15.10;91.70;;;;;;5033243;28;20127;-67
2022/03/05 12:10:30;;;;;;;3.05;1.48;;;15.00;90.70;;;;;;5032616;28;20465;-68
2022/03/05 12:13:06;;;;;;;3.05;1.30;;;13.20;84.90;;;;;;5031200;28;20034;-68
2022/03/05 12:15:33;;;;;;;3.85;1.63;;;12.70;85.30;;;;;;5032238;28;20026;-67
2022/03/05 12:18:00;;;;;;;4.95;1.90;;;14.40;90.80;;;;;;5032964;28;20127;-68
2022/03/05 12:20:34;;;;;;;4.05;1.63;;;14.30;85.80;;;;;;5032758;28;20032;-67
2022/03/05 12:23:08;;;;;;;2.90;1.38;;;13.90;87.10;;;;;;5032134;28;20033;-67
2022/03/05 12:25:39;;;;;;;5.05;1.55;;;14.60;87.90;;;;;;5032642;28;20029;-68
2022/03/05 12:28:11;;;;;;;5.68;2.10;;;15.20;89.80;;;;;;5032511;28;20498;-67
2022/03/05 12:30:38;;;;;;;4.40;1.55;;;13.70;90.20;;;;;;5032343;28;20036;-67
2022/03/05 12:33:14;;;;;;;5.00;1.75;;;13.20;90.90;;;;;;5034072;28;20029;-67
2022/03/05 12:35:43;;;;;;;5.25;2.28;;;13.70;90.50;;;;;;5032478;28;20042;-68
2022/03/05 12:38:10;;;;;;;6.28;2.40;;;13.50;91.60;;;;;;5030832;28;20041;-67
2022/03/05 12:40:37;;;;;;;3.47;1.90;;;12.80;90.60;;;;;;5032203;28;20359;-68
2022/03/05 12:43:05;;;;;;;4.80;2.08;;;12.70;90.30;;;;;;5031738;28;20056;-68